Time;durP1;ratioP1;P1;durP2;ratioP2;P2;SDS_P1;SDS_P2;PMS_P1;PMS_P2;Temp;Humidity;BMP_temperature;BMP_pressure;BME280_temperature;BME280_humidity;BME280_pressure;Samples;Min_cycle;Max_cycle;Signal;HPM_P1;HPM_P2
2023/05/02 00:01:58;;;;;;;0.27;0.27;;;;;;;11.09;100.00;95481.94;4363616;32;20208;-57
2023/05/02 00:04:25;;;;;;;0.70;0.70;;;;;;;11.09;100.00;95488.03;4363366;32;20307;-57
2023/05/02 00:06:58;;;;;;;0.47;0.47;;;;;;;11.17;100.00;95489.22;4373656;32;20222;-58
2023/05/02 00:09:24;;;;;;;0.30;0.30;;;;;;;11.11;100.00;95485.09;4385727;32;20217;-57
2023/05/02 00:11:51;;;;;;;0.30;0.30;;;;;;;11.13;100.00;95488.22;4383674;32;20192;-55
2023/05/02 00:14:17;;;;;;;0.53;0.53;;;;;;;11.07;100.00;95487.53;4370536;32;20177;-58
2023/05/02 00:16:43;;;;;;;1.30;1.20;;;;;;;11.07;100.00;95484.09;4374121;32;20225;-57
2023/05/02 00:19:10;;;;;;;0.50;0.50;;;;;;;11.06;100.00;95482.50;4339616;32;20205;-57
2023/05/02 00:21:35;;;;;;;0.70;0.70;;;;;;;11.06;100.00;95483.28;4355497;32;20337;-56
2023/05/02 00:24:03;;;;;;;0.50;0.50;;;;;;;10.93;100.00;95484.84;4346382;32;20199;-57
2023/05/02 00:26:30;;;;;;;1.30;0.53;;;;;;;10.87;100.00;95483.34;4364573;32;20318;-58
2023/05/02 00:28:57;;;;;;;0.67;0.67;;;;;;;11.00;100.00;95485.28;4334149;32;20186;-56
2023/05/02 00:31:23;;;;;;;0.70;0.70;;;;;;;10.79;100.00;95484.03;4337675;32;20229;-58
2023/05/02 00:33:52;;;;;;;0.50;0.50;;;;;;;10.93;100.00;95484.84;4383340;32;20240;-58
2023/05/02 00:36:22;;;;;;;0.37;0.37;;;;;;;10.91;100.00;95486.22;4366526;32;20181;-58
2023/05/02 00:38:47;;;;;;;0.80;0.80;;;;;;;10.98;100.00;95476.81;4365341;32;20189;-57
2023/05/02 00:41:13;;;;;;;0.67;0.67;;;;;;;10.90;100.00;95480.13;4371431;32;20210;-57
2023/05/02 00:43:40;;;;;;;0.73;0.73;;;;;;;10.89;100.00;95478.53;4378698;32;20338;-55
2023/05/02 00:46:06;;;;;;;0.67;0.67;;;;;;;10.88;100.00;95476.97;4387892;32;20176;-56
2023/05/02 00:48:34;;;;;;;0.53;0.53;;;;;;;10.98;100.00;95481.31;4372419;32;20193;-58
2023/05/02 00:51:12;;;;;;;1.00;1.00;;;;;;;11.06;100.00;95477.19;4369731;32;20253;-56
2023/05/02 00:53:39;;;;;;;3.40;0.70;;;;;;;10.90;100.00;95481.97;4352925;32;20275;-57
2023/05/02 00:56:09;;;;;;;0.30;0.30;;;;;;;10.76;100.00;95492.56;4375122;32;20185;-57
2023/05/02 00:58:39;;;;;;;0.43;0.43;;;;;;;10.68;100.00;95482.59;4364471;32;20199;-58
2023/05/02 01:01:34;;;;;;;1.80;0.80;;;;;;;10.76;100.00;95474.00;4373934;32;20219;-57
2023/05/02 01:04:21;;;;;;;0.47;0.47;;;;;;;10.82;100.00;95482.63;4375548;32;20242;-58
2023/05/02 01:07:09;;;;;;;0.53;0.53;;;;;;;10.95;100.00;95485.34;4393201;32;20229;-56
2023/05/02 01:09:47;;;;;;;0.30;0.30;;;;;;;10.97;100.00;95491.16;4385672;32;20199;-57
2023/05/02 01:12:53;;;;;;;0.90;0.90;;;;;;;10.86;100.00;95483.63;4358012;32;20185;-61
2023/05/02 01:15:21;;;;;;;1.07;0.97;;;;;;;10.73;100.00;95485.19;4332220;32;20227;-57
2023/05/02 01:18:08;;;;;;;0.10;0.10;;;;;;;10.78;100.00;95485.09;4372920;32;20172;-57
2023/05/02 01:20:40;;;;;;;0.50;0.50;;;;;;;10.69;100.00;95489.47;4373938;32;20204;-58
2023/05/02 01:23:24;;;;;;;0.63;0.63;;;;;;;10.69;100.00;95481.53;4358532;32;20401;-57
2023/05/02 01:26:16;;;;;;;0.73;0.53;;;;;;;10.61;100.00;95487.47;4366837;32;20235;-58
2023/05/02 01:29:08;;;;;;;0.83;0.40;;;;;;;10.52;100.00;95489.22;4354497;32;20255;-58
2023/05/02 01:31:37;;;;;;;0.60;0.60;;;;;;;10.61;100.00;95490.13;4361167;32;20192;-57
2023/05/02 01:34:09;;;;;;;0.67;0.67;;;;;;;10.69;100.00;95486.84;4358449;32;20200;-57
2023/05/02 01:36:42;;;;;;;0.77;0.77;;;;;;;10.67;100.00;95492.44;4370708;32;20188;-58
2023/05/02 01:39:13;;;;;;;0.50;0.50;;;;;;;10.74;100.00;95492.06;4375770;32;20199;-57
2023/05/02 01:41:42;;;;;;;0.57;0.57;;;;;;;10.74;100.00;95493.94;4325106;32;20240;-58
2023/05/02 01:44:10;;;;;;;0.30;0.30;;;;;;;10.71;100.00;95492.62;4369411;32;20191;-57
2023/05/02 01:46:39;;;;;;;0.80;0.80;;;;;;;10.84;100.00;95486.56;4349662;32;21495;-57
2023/05/02 01:49:08;;;;;;;0.73;0.73;;;;;;;10.86;99.66;95492.38;4356777;32;20219;-55
2023/05/02 01:51:39;;;;;;;0.30;0.30;;;;;;;10.69;100.00;95500.09;4334638;32;20232;-57
2023/05/02 01:54:19;;;;;;;0.30;0.30;;;;;;;10.79;100.00;95486.69;4352815;32;20255;-56
2023/05/02 01:56:48;;;;;;;0.87;0.87;;;;;;;10.85;99.70;95497.97;4372467;32;20204;-56
2023/05/02 01:59:20;;;;;;;1.10;0.80;;;;;;;10.72;99.71;95498.72;4389569;32;20185;-56
2023/05/02 02:01:51;;;;;;;0.47;0.47;;;;;;;10.78;99.75;95509.00;4331418;32;20254;-59
2023/05/02 02:04:21;;;;;;;1.20;0.83;;;;;;;10.70;99.91;95499.03;4375950;32;20187;-55
2023/05/02 02:07:01;;;;;;;0.83;0.83;;;;;;;10.76;99.56;95500.53;4387771;32;20239;-58
2023/05/02 02:09:27;;;;;;;0.23;0.23;;;;;;;10.89;99.23;95501.63;4365286;32;20184;-57
2023/05/02 02:12:12;;;;;;;0.50;0.50;;;;;;;10.77;99.13;95506.63;4362699;32;20193;-56
2023/05/02 02:14:41;;;;;;;1.07;0.77;;;;;;;10.55;99.90;95513.31;4349433;32;20206;-57
2023/05/02 02:17:31;;;;;;;0.67;0.67;;;;;;;10.73;99.68;95509.06;4364054;32;20271;-56
2023/05/02 02:20:04;;;;;;;1.73;0.90;;;;;;;10.74;99.63;95510.63;4343685;32;20192;-56
2023/05/02 02:22:33;;;;;;;0.40;0.40;;;;;;;10.72;99.53;95512.00;4367258;32;20368;-57
2023/05/02 02:25:01;;;;;;;0.30;0.30;;;;;;;10.62;99.45;95512.94;4376377;32;20253;-58
2023/05/02 02:27:28;;;;;;;0.73;0.73;;;;;;;10.64;99.64;95521.41;4375092;32;20259;-56
2023/05/02 02:29:54;;;;;;;0.70;0.70;;;;;;;10.61;99.46;95520.09;4365709;32;20169;-57
2023/05/02 02:32:25;;;;;;;0.43;0.43;;;;;;;10.68;99.73;95519.75;4338031;32;20314;-58
2023/05/02 02:34:54;;;;;;;0.70;0.70;;;;;;;10.75;99.04;95522.03;4354205;32;20196;-58
2023/05/02 02:37:48;;;;;;;0.60;0.60;;;;;;;10.58;99.51;95520.69;4383517;32;20252;-57
2023/05/02 02:40:41;;;;;;;0.60;0.60;;;;;;;10.62;99.50;95523.53;4380710;32;20192;-58
2023/05/02 02:43:26;;;;;;;0.60;0.60;;;;;;;10.56;99.61;95517.53;4363225;32;20286;-58
2023/05/02 02:46:42;;;;;;;0.77;0.60;;;;;;;10.58;99.63;95527.87;4338280;32;20189;-57
2023/05/02 02:49:46;;;;;;;2.27;0.70;;;;;;;10.50;99.41;95531.16;4365352;32;20180;-57
2023/05/02 02:52:32;;;;;;;0.30;0.30;;;;;;;10.56;99.46;95522.84;4366634;32;20189;-57
2023/05/02 02:55:43;;;;;;;0.90;0.90;;;;;;;10.59;99.12;95529.44;4358673;32;20214;-57
2023/05/02 02:58:27;;;;;;;0.47;0.47;;;;;;;10.64;99.45;95534.66;4327990;32;22401;-57
2023/05/02 03:00:54;;;;;;;0.53;0.53;;;;;;;10.56;99.45;95527.37;4337049;32;20213;-57
2023/05/02 03:03:23;;;;;;;0.70;0.70;;;;;;;10.52;99.51;95534.31;4372803;32;20224;-58
2023/05/02 03:05:49;;;;;;;1.43;0.73;;;;;;;10.50;99.75;95539.12;4370961;32;20181;-57
2023/05/02 03:08:17;;;;;;;0.50;0.50;;;;;;;10.44;99.39;95537.59;4333204;32;20185;-57
2023/05/02 03:10:44;;;;;;;0.63;0.63;;;;;;;10.51;99.66;95538.81;4345223;32;20177;-57
2023/05/02 03:13:11;;;;;;;0.80;0.80;;;;;;;10.55;99.58;95539.84;4388961;32;20287;-56
2023/05/02 03:16:26;;;;;;;0.47;0.47;;;;;;;10.46;99.25;95554.00;4382524;32;20309;-57
2023/05/02 03:18:52;;;;;;;0.57;0.53;;;;;;;10.49;99.27;95548.94;4365257;32;20230;-58
2023/05/02 03:21:18;;;;;;;0.40;0.40;;;;;;;10.46;99.49;95554.81;4345676;32;20271;-56
2023/05/02 03:23:44;;;;;;;0.80;0.80;;;;;;;10.54;99.49;95550.72;4341337;32;20196;-57
2023/05/02 03:26:11;;;;;;;0.43;0.43;;;;;;;10.53;99.18;95549.16;4356729;32;20200;-57
2023/05/02 03:28:39;;;;;;;0.50;0.50;;;;;;;10.44;99.04;95546.34;4342603;32;20335;-56
2023/05/02 03:31:05;;;;;;;0.50;0.50;;;;;;;10.52;99.19;95552.88;4362807;32;20191;-56
2023/05/02 03:33:31;;;;;;;0.60;0.60;;;;;;;10.56;98.99;95551.25;4384397;32;20200;-55
2023/05/02 03:35:58;;;;;;;0.50;0.50;;;;;;;10.67;98.71;95548.13;4388657;32;20203;-55
2023/05/02 03:38:31;;;;;;;0.60;0.60;;;;;;;10.50;98.83;95555.81;4370313;32;20192;-57
2023/05/02 03:40:59;;;;;;;0.37;0.37;;;;;;;10.38;99.24;95552.81;4342851;32;20193;-58
2023/05/02 03:43:26;;;;;;;0.57;0.57;;;;;;;10.45;99.30;95553.22;4340806;32;20197;-57
2023/05/02 03:45:51;;;;;;;0.87;0.87;;;;;;;10.42;99.12;95553.78;4365417;32;20223;-58
2023/05/02 03:48:16;;;;;;;0.37;0.37;;;;;;;10.58;98.92;95555.19;4317535;32;20193;-59
2023/05/02 03:50:42;;;;;;;0.40;0.40;;;;;;;10.49;99.06;95562.19;4340743;32;20266;-56
2023/05/02 03:53:10;;;;;;;0.10;0.10;;;;;;;10.48;99.07;95562.47;4366018;32;20260;-57
2023/05/02 03:55:44;;;;;;;0.40;0.40;;;;;;;10.54;99.14;95561.34;4371992;32;20192;-57
2023/05/02 03:58:10;;;;;;;0.30;0.27;;;;;;;10.53;98.93;95565.06;4350111;32;20267;-57
2023/05/02 04:00:38;;;;;;;0.50;0.50;;;;;;;10.62;98.33;95568.62;4363107;32;22530;-57
2023/05/02 04:03:06;;;;;;;18.27;1.40;;;;;;;10.66;97.93;95569.66;4356574;32;20194;-58
2023/05/02 04:05:36;;;;;;;0.40;0.40;;;;;;;10.55;98.15;95574.31;4375556;32;20199;-57
2023/05/02 04:08:06;;;;;;;0.33;0.33;;;;;;;10.52;98.54;95571.44;4388751;32;20176;-58
2023/05/02 04:10:32;;;;;;;0.33;0.33;;;;;;;10.65;97.80;95578.69;4370630;32;20195;-57
2023/05/02 04:13:02;;;;;;;0.53;0.53;;;;;;;10.48;98.30;95583.69;4350969;32;20225;-57
2023/05/02 04:15:33;;;;;;;0.67;0.67;;;;;;;10.54;98.40;95585.22;4377786;32;20239;-58
2023/05/02 04:18:00;;;;;;;1.13;0.77;;;;;;;10.47;98.34;95588.22;4369848;32;20172;-57
2023/05/02 04:20:27;;;;;;;0.90;0.90;;;;;;;10.31;98.88;95589.50;4369873;32;20263;-58
2023/05/02 04:22:54;;;;;;;0.73;0.73;;;;;;;10.36;99.07;95592.09;4352678;32;20264;-57
2023/05/02 04:25:20;;;;;;;0.13;0.13;;;;;;;10.26;99.60;95600.94;4337495;32;20248;-57
2023/05/02 04:27:49;;;;;;;0.43;0.43;;;;;;;10.28;99.11;95595.34;4354436;32;20309;-57
2023/05/02 04:30:15;;;;;;;0.50;0.50;;;;;;;10.28;99.30;95598.00;4328335;32;20189;-57
2023/05/02 04:32:42;;;;;;;0.93;0.93;;;;;;;10.36;99.22;95601.91;4367210;32;20195;-57
2023/05/02 04:35:08;;;;;;;0.60;0.60;;;;;;;10.46;98.68;95599.09;4383463;32;20195;-56
2023/05/02 04:37:36;;;;;;;0.53;0.53;;;;;;;10.32;98.50;95605.13;4355235;32;20211;-58
2023/05/02 04:40:03;;;;;;;0.50;0.50;;;;;;;10.36;98.72;95612.50;4355393;32;20211;-58
2023/05/02 04:42:30;;;;;;;0.97;0.97;;;;;;;10.36;98.80;95604.56;4360379;32;20191;-58
2023/05/02 04:44:56;;;;;;;0.40;0.40;;;;;;;10.31;98.75;95610.69;4362234;32;20173;-58
2023/05/02 04:47:23;;;;;;;0.40;0.40;;;;;;;10.37;98.64;95608.78;4359407;32;20169;-58
2023/05/02 04:49:51;;;;;;;0.27;0.27;;;;;;;10.31;98.71;95613.34;4369955;32;20268;-58
2023/05/02 04:52:17;;;;;;;0.60;0.50;;;;;;;10.38;98.47;95618.31;4370402;32;20184;-60
2023/05/02 04:54:44;;;;;;;0.70;0.70;;;;;;;10.23;98.97;95630.66;4368356;32;20177;-57
2023/05/02 04:57:10;;;;;;;0.57;0.57;;;;;;;10.23;99.23;95628.03;4354479;32;20180;-57
2023/05/02 04:59:39;;;;;;;1.40;1.30;;;;;;;10.38;98.93;95631.59;4367866;32;20291;-56
2023/05/02 05:02:06;;;;;;;0.67;0.67;;;;;;;10.23;99.16;95641.28;4385988;32;20214;-57
2023/05/02 05:04:35;;;;;;;0.70;0.70;;;;;;;10.24;99.46;95650.81;4374411;32;20282;-57
2023/05/02 05:07:02;;;;;;;0.47;0.47;;;;;;;10.27;99.48;95646.81;4353397;32;20195;-56
2023/05/02 05:09:28;;;;;;;0.57;0.57;;;;;;;10.30;99.37;95644.38;4365256;32;20189;-56
2023/05/02 05:11:54;;;;;;;1.40;1.30;;;;;;;10.45;98.82;95653.22;4382191;32;20241;-58
2023/05/02 05:14:21;;;;;;;1.47;1.47;;;;;;;10.50;98.82;95650.50;4375314;32;20228;-58
2023/05/02 05:16:49;;;;;;;0.80;0.80;;;;;;;10.54;98.47;95654.97;4344684;32;20234;-57
2023/05/02 05:19:15;;;;;;;1.50;1.20;;;;;;;10.65;98.10;95652.97;4347658;32;20201;-57
2023/05/02 05:21:41;;;;;;;0.77;0.77;;;;;;;10.68;97.43;95663.03;4385260;32;20240;-58
2023/05/02 05:24:08;;;;;;;0.60;0.60;;;;;;;10.67;97.65;95666.75;4366161;32;20294;-56
2023/05/02 05:26:38;;;;;;;0.70;0.70;;;;;;;10.74;97.20;95667.19;4380024;32;20180;-57
2023/05/02 05:29:06;;;;;;;0.70;0.70;;;;;;;10.64;97.58;95668.09;4386678;32;20172;-57
2023/05/02 05:31:33;;;;;;;0.67;0.67;;;;;;;10.64;97.77;95673.41;4350933;32;20215;-57
2023/05/02 05:34:01;;;;;;;0.77;0.77;;;;;;;10.61;97.79;95673.19;4371991;32;20231;-57
2023/05/02 05:36:28;;;;;;;0.60;0.60;;;;;;;10.58;97.63;95679.06;4361970;32;20241;-55
2023/05/02 05:38:55;;;;;;;0.80;0.80;;;;;;;10.75;96.76;95674.09;4320181;32;20185;-58
2023/05/02 05:41:23;;;;;;;0.57;0.57;;;;;;;10.72;96.78;95679.97;4299041;32;20200;-57
2023/05/02 05:43:50;;;;;;;1.00;1.00;;;;;;;10.69;96.85;95683.16;4375987;32;20199;-60
2023/05/02 05:46:16;;;;;;;0.73;0.73;;;;;;;10.80;97.02;95687.28;4390448;32;20193;-58
2023/05/02 05:48:42;;;;;;;0.60;0.60;;;;;;;10.78;97.15;95689.44;4365661;32;20212;-55
2023/05/02 05:51:08;;;;;;;0.60;0.60;;;;;;;10.80;96.48;95691.81;4360360;32;20255;-58
2023/05/02 05:53:35;;;;;;;0.60;0.60;;;;;;;10.67;97.52;95698.59;4372678;32;20193;-54
2023/05/02 05:56:08;;;;;;;0.77;0.73;;;;;;;10.74;96.93;95704.34;4354698;32;20220;-58
2023/05/02 05:58:35;;;;;;;0.83;0.83;;;;;;;10.83;97.32;95705.28;4327238;32;20199;-56
2023/05/02 06:01:03;;;;;;;0.60;0.60;;;;;;;10.81;97.30;95715.38;4351811;32;20192;-58
2023/05/02 06:03:28;;;;;;;1.10;1.10;;;;;;;10.83;97.98;95712.44;4348949;32;20224;-57
2023/05/02 06:05:58;;;;;;;0.30;0.30;;;;;;;10.93;97.44;95713.12;4365675;32;20220;-56
2023/05/02 06:08:24;;;;;;;0.80;0.80;;;;;;;10.80;97.41;95708.53;4354363;32;20204;-56
2023/05/02 06:10:51;;;;;;;0.90;0.90;;;;;;;10.72;97.85;95711.78;4321121;32;20196;-59
2023/05/02 06:13:16;;;;;;;1.57;0.90;;;;;;;10.86;97.61;95720.62;4377948;32;20291;-57
2023/05/02 06:15:41;;;;;;;0.70;0.70;;;;;;;10.91;97.22;95712.63;4357114;32;20184;-57
2023/05/02 06:18:07;;;;;;;0.80;0.80;;;;;;;11.02;96.71;95716.69;4323138;32;20218;-57
2023/05/02 06:20:35;;;;;;;0.63;0.63;;;;;;;10.86;97.50;95715.31;4332362;32;20205;-55
2023/05/02 06:23:01;;;;;;;1.17;1.07;;;;;;;10.87;97.55;95724.06;4364131;32;20220;-54
2023/05/02 06:25:26;;;;;;;1.00;1.00;;;;;;;10.92;97.60;95724.81;4351142;32;20194;-57
2023/05/02 06:27:52;;;;;;;1.50;0.93;;;;;;;11.00;97.06;95726.84;4340972;32;20189;-56
2023/05/02 06:30:18;;;;;;;0.87;0.87;;;;;;;11.10;96.47;95730.44;4344137;32;20204;-57
2023/05/02 06:32:43;;;;;;;0.80;0.80;;;;;;;11.02;96.42;95727.31;4327095;32;20201;-47
2023/05/02 06:35:12;;;;;;;1.40;1.30;;;;;;;11.14;98.00;95737.53;4346200;32;20181;-48
2023/05/02 06:37:39;;;;;;;1.00;1.00;;;;;;;12.80;100.00;95721.75;4338217;32;20291;-48
2023/05/02 06:40:06;;;;;;;1.10;1.00;;;;;;;13.41;96.34;95728.50;4346216;32;20212;-51
2023/05/02 06:42:32;;;;;;;1.20;1.10;;;;;;;14.06;90.01;95738.69;4352969;32;20185;-51
2023/05/02 06:44:58;;;;;;;0.87;0.60;;;;;;;14.56;85.36;95743.84;4358540;32;20258;-48
2023/05/02 06:47:25;;;;;;;0.90;0.90;;;;;;;14.84;82.93;95739.87;4331425;32;20193;-46
2023/05/02 06:49:51;;;;;;;0.43;0.43;;;;;;;15.08;80.60;95745.59;4340340;32;20292;-47
2023/05/02 06:52:18;;;;;;;1.77;0.93;;;;;;;15.15;79.83;95742.50;4333533;32;20193;-48
2023/05/02 06:54:45;;;;;;;0.70;0.70;;;;;;;15.27;78.96;95747.22;4360843;32;20052;-44
2023/05/02 06:57:15;;;;;;;0.40;0.40;;;;;;;15.23;78.17;95747.03;4366480;32;20204;-48
2023/05/02 06:59:44;;;;;;;0.40;0.40;;;;;;;15.28;78.03;95754.13;4343378;32;20194;-50
2023/05/02 07:02:11;;;;;;;1.27;1.07;;;;;;;15.40;77.30;95763.09;4331295;32;20285;-49
2023/05/02 07:04:39;;;;;;;0.90;0.60;;;;;;;15.48;76.85;95766.91;4320639;32;23591;-51
2023/05/02 07:07:06;;;;;;;0.47;0.47;;;;;;;15.45;76.76;95767.53;4352221;32;20185;-51
2023/05/02 07:09:34;;;;;;;1.13;1.13;;;;;;;15.81;80.55;95772.59;4363102;32;20181;-54
2023/05/02 07:12:01;;;;;;;0.80;0.80;;;;;;;15.40;77.93;95768.44;4361296;32;20189;-54
2023/05/02 07:14:29;;;;;;;2.33;1.30;;;;;;;14.65;78.50;95774.06;4325284;32;20259;-57
2023/05/02 07:16:58;;;;;;;0.77;0.77;;;;;;;13.90;82.07;95770.31;4335315;32;20180;-52
2023/05/02 07:19:26;;;;;;;1.33;1.33;;;;;;;13.48;83.59;95763.53;4324380;32;20231;-56
2023/05/02 07:21:52;;;;;;;0.90;0.90;;;;;;;13.36;85.54;95769.38;4316330;32;20221;-55
2023/05/02 07:24:22;;;;;;;2.33;1.10;;;;;;;13.02;87.47;95764.47;4331486;32;20304;-56
2023/05/02 07:26:48;;;;;;;3.47;1.83;;;;;;;13.00;87.27;95763.97;4341713;32;20184;-57
2023/05/02 07:29:16;;;;;;;0.87;0.87;;;;;;;12.73;88.97;95769.28;4360164;32;20186;-56
2023/05/02 07:31:42;;;;;;;0.40;0.40;;;;;;;12.74;89.44;95760.22;4283927;32;20188;-54
2023/05/02 07:34:09;;;;;;;0.93;0.93;;;;;;;12.71;89.13;95771.44;4294884;32;20303;-54
2023/05/02 07:36:38;;;;;;;0.93;0.93;;;;;;;12.74;89.05;95766.31;4324201;32;20188;-52
2023/05/02 07:39:05;;;;;;;1.07;1.07;;;;;;;12.81;89.17;95770.47;4319489;32;20203;-55
2023/05/02 07:41:32;;;;;;;1.43;1.43;;;;;;;12.54;90.17;95768.56;4363452;32;20248;-55
2023/05/02 07:43:59;;;;;;;1.40;1.40;;;;;;;12.54;89.80;95771.25;4339492;32;20188;-57
2023/05/02 07:46:27;;;;;;;1.70;1.60;;;;;;;12.56;89.98;95775.19;4305901;32;20224;-57
2023/05/02 07:48:56;;;;;;;1.23;1.23;;;;;;;12.56;90.88;95763.75;4265528;32;20269;-56
2023/05/02 07:51:21;;;;;;;0.87;0.87;;;;;;;12.66;90.39;95772.34;4322868;32;20211;-55
2023/05/02 07:53:52;;;;;;;6.00;1.40;;;;;;;12.58;90.06;95773.03;4348379;32;20197;-59
2023/05/02 07:56:20;;;;;;;1.53;1.43;;;;;;;12.71;90.11;95769.56;4323698;32;20228;-56
2023/05/02 07:58:50;;;;;;;1.87;1.77;;;;;;;12.55;89.90;95775.47;4336598;32;20185;-55
2023/05/02 08:01:17;;;;;;;1.13;1.13;;;;;;;12.69;89.65;95776.28;4312672;32;20197;-53
2023/05/02 08:03:44;;;;;;;1.47;1.40;;;;;;;12.82;89.21;95783.50;4338527;32;20211;-56
2023/05/02 08:06:10;;;;;;;1.30;1.30;;;;;;;12.97;88.65;95788.53;4344872;32;20241;-58
2023/05/02 08:08:37;;;;;;;2.77;1.47;;;;;;;12.92;88.29;95788.63;4267843;32;20198;-53
2023/05/02 08:11:04;;;;;;;1.53;1.43;;;;;;;12.98;88.51;95792.75;4337930;32;20208;-58
2023/05/02 08:13:30;;;;;;;1.70;1.60;;;;;;;13.23;87.93;95793.37;4346676;32;20180;-58
2023/05/02 08:15:57;;;;;;;1.50;1.50;;;;;;;13.36;87.18;95792.56;4345452;32;20185;-52
2023/05/02 08:18:40;;;;;;;1.40;1.40;;;;;;;13.30;87.15;95791.88;4327511;32;20259;-56
2023/05/02 08:21:07;;;;;;;2.03;1.93;;;;;;;13.52;86.51;95796.47;4312686;32;20255;-54
2023/05/02 08:23:33;;;;;;;1.77;1.67;;;;;;;13.65;85.70;95793.00;4353302;32;20245;-57
2023/05/02 08:26:00;;;;;;;1.23;1.23;;;;;;;13.67;85.38;95793.50;4362371;32;20192;-57
2023/05/02 08:28:27;;;;;;;1.87;1.77;;;;;;;13.73;85.02;95797.59;4328973;32;20182;-56
2023/05/02 08:30:52;;;;;;;2.00;1.43;;;;;;;13.60;85.00;95793.09;4296610;32;20213;-57
2023/05/02 08:33:17;;;;;;;2.77;2.37;;;;;;;13.60;84.82;95790.44;4364453;32;20219;-61
2023/05/02 08:35:44;;;;;;;1.73;1.70;;;;;;;13.50;85.63;95798.66;4357152;32;20248;-58
2023/05/02 08:38:10;;;;;;;0.97;0.80;;;;;;;13.70;84.96;95795.56;4363074;32;20271;-48
2023/05/02 08:40:37;;;;;;;0.97;0.97;;;;;;;15.18;91.62;95792.63;4373851;32;20177;-47
2023/05/02 08:43:04;;;;;;;1.03;1.03;;;;;;;15.80;82.28;95797.78;4354818;32;20184;-48
2023/05/02 08:45:42;;;;;;;2.50;2.23;;;;;;;16.67;76.69;95795.81;4339784;32;20197;-52
2023/05/02 08:48:10;;;;;;;2.23;1.90;;;;;;;17.02;72.93;95807.22;4360786;32;20200;-49
2023/05/02 08:50:40;;;;;;;1.33;1.33;;;;;;;17.29;72.19;95804.06;4365283;32;20181;-50
2023/05/02 08:53:07;;;;;;;1.57;1.47;;;;;;;17.26;70.90;95807.41;4340527;32;20260;-49
2023/05/02 08:55:38;;;;;;;1.17;1.17;;;;;;;17.53;70.63;95803.47;4324279;32;20235;-48
2023/05/02 08:58:04;;;;;;;1.30;1.30;;;;;;;17.54;69.96;95813.09;4351218;32;20199;-52
2023/05/02 09:00:30;;;;;;;1.60;1.50;;;;;;;17.53;69.57;95804.25;4372976;32;20196;-49
2023/05/02 09:03:14;;;;;;;1.37;1.37;;;;;;;17.36;70.38;95812.41;4319525;32;20193;-49
2023/05/02 09:05:43;;;;;;;1.90;1.30;;;;;;;17.39;69.31;95814.44;4346854;32;20192;-48
2023/05/02 09:08:11;;;;;;;0.80;0.80;;;;;;;17.48;69.28;95817.84;4345637;32;20268;-49
2023/05/02 09:10:40;;;;;;;0.80;0.80;;;;;;;17.52;69.03;95818.00;4328771;32;20184;-46
2023/05/02 09:13:39;;;;;;;0.77;0.77;;;;;;;17.45;69.10;95817.75;4333261;32;20181;-46
2023/05/02 09:16:24;;;;;;;0.63;0.63;;;;;;;17.61;67.84;95821.41;4342849;32;20189;-49
2023/05/02 09:18:54;;;;;;;1.47;1.37;;;;;;;17.62;67.14;95827.56;4335078;32;20180;-48
2023/05/02 09:21:22;;;;;;;1.80;1.70;;;;;;;17.69;67.37;95823.28;4326923;32;20219;-56
2023/05/02 09:24:02;;;;;;;0.83;0.83;;;;;;;17.65;67.35;95827.75;4306802;32;20189;-49
2023/05/02 09:26:31;;;;;;;1.40;1.40;;;;;;;17.10;69.19;95833.97;4347507;32;20180;-51
2023/05/02 09:29:05;;;;;;;0.73;0.73;;;;;;;17.11;69.10;95824.03;4331560;32;20185;-48
2023/05/02 09:31:40;;;;;;;1.60;1.50;;;;;;;17.34;68.99;95832.59;4354069;32;20184;-49
2023/05/02 09:34:17;;;;;;;1.77;1.67;;;;;;;17.53;68.41;95824.94;4331430;32;20202;-49
2023/05/02 09:37:11;;;;;;;1.00;1.00;;;;;;;17.50;67.26;95833.63;4336584;32;20227;-49
2023/05/02 09:39:36;;;;;;;0.87;0.87;;;;;;;17.42;67.95;95840.63;4311629;32;20274;-48
2023/05/02 09:42:03;;;;;;;1.57;1.47;;;;;;;17.63;67.56;95837.19;4351155;32;20181;-52
2023/05/02 09:44:36;;;;;;;1.87;1.77;;;;;;;17.64;67.07;95839.59;4311834;32;20186;-48
2023/05/02 09:47:03;;;;;;;1.67;1.57;;;;;;;17.73;66.20;95832.25;4341006;32;20233;-49
2023/05/02 09:49:47;;;;;;;1.53;1.43;;;;;;;17.29;65.21;95835.47;4365164;32;20206;-53
2023/05/02 09:52:20;;;;;;;3.13;1.70;;;;;;;17.60;66.50;95835.94;4365025;32;20200;-52
2023/05/02 09:54:55;;;;;;;1.30;1.30;;;;;;;17.69;66.05;95841.28;4336262;32;20180;-49
2023/05/02 09:57:20;;;;;;;1.50;1.50;;;;;;;17.75;66.00;95840.75;4376178;32;20191;-49
2023/05/02 09:59:57;;;;;;;0.93;0.93;;;;;;;17.67;66.37;95835.44;4366110;32;20193;-48
2023/05/02 10:02:23;;;;;;;1.50;1.40;;;;;;;17.66;66.68;95834.69;4347644;32;20187;-60
2023/05/02 10:04:56;;;;;;;1.67;1.57;;;;;;;17.19;68.12;95836.62;4322308;32;20189;-60
2023/05/02 10:07:22;;;;;;;0.87;0.87;;;;;;;16.73;69.41;95832.06;4347306;32;20223;-60
2023/05/02 10:09:50;;;;;;;1.20;1.10;;;;;;;16.18;72.25;95829.28;4355336;32;20225;-62
2023/05/02 10:12:23;;;;;;;1.60;1.50;;;;;;;15.79;73.36;95839.81;4315013;32;20176;-60
2023/05/02 10:14:57;;;;;;;1.90;1.77;;;;;;;15.42;73.88;95840.34;4296338;32;20189;-60
2023/05/02 10:17:41;;;;;;;2.17;2.07;;;;;;;15.25;75.25;95841.09;4325655;32;20242;-59
2023/05/02 10:20:11;;;;;;;1.53;1.53;;;;;;;15.29;75.03;95841.25;4320683;32;20189;-59
2023/05/02 10:22:39;;;;;;;2.00;1.90;;;;;;;15.06;74.59;95845.88;4373026;32;20196;-59
2023/05/02 10:25:10;;;;;;;2.47;2.20;;;;;;;15.01;75.44;95841.47;4281389;32;20315;-59
2023/05/02 10:27:36;;;;;;;1.90;1.80;;;;;;;15.03;75.65;95839.28;4373499;32;20264;-59
2023/05/02 10:30:05;;;;;;;1.10;1.10;;;;;;;14.91;75.95;95841.75;4349275;32;20280;-59
2023/05/02 10:32:35;;;;;;;1.90;1.80;;;;;;;15.00;75.87;95839.87;4349905;32;20224;-59
2023/05/02 10:35:07;;;;;;;3.27;2.30;;;;;;;14.78;76.71;95839.94;4328169;32;20219;-59
2023/05/02 10:37:52;;;;;;;2.67;2.47;;;;;;;14.65;78.02;95838.94;4351158;32;20237;-59
2023/05/02 10:40:18;;;;;;;1.60;1.60;;;;;;;14.71;77.28;95832.37;4360137;32;20212;-60
2023/05/02 10:42:53;;;;;;;1.37;1.37;;;;;;;14.75;75.94;95832.56;4362442;32;20258;-59
2023/05/02 10:45:33;;;;;;;1.43;1.43;;;;;;;14.74;76.00;95836.31;4357311;32;20204;-59
2023/05/02 10:48:19;;;;;;;2.27;2.17;;;;;;;14.42;75.57;95830.16;4350058;32;20202;-59
2023/05/02 10:50:50;;;;;;;1.77;1.67;;;;;;;14.64;76.06;95831.22;4352745;32;20185;-59
2023/05/02 10:53:33;;;;;;;2.20;2.07;;;;;;;14.60;76.79;95819.56;4357325;32;20271;-59
2023/05/02 10:56:20;;;;;;;1.90;1.87;;;;;;;14.62;76.79;95822.72;4354066;32;20187;-59
2023/05/02 10:59:41;;;;;;;4.23;2.47;;;;;;;14.69;76.30;95825.75;4369491;32;20192;-59
2023/05/02 11:02:23;;;;;;;2.30;2.20;;;;;;;14.58;77.12;95821.75;4365027;32;20267;-60
2023/05/02 11:05:09;;;;;;;1.83;1.73;;;;;;;14.52;77.09;95821.12;4381917;32;20196;-59
2023/05/02 11:07:36;;;;;;;1.73;1.63;;;;;;;14.59;77.37;95820.66;4362729;32;20181;-59
2023/05/02 11:10:35;;;;;;;1.00;1.00;;;;;;;14.56;76.33;95824.72;4359539;32;20185;-59
2023/05/02 11:13:02;;;;;;;1.27;1.27;;;;;;;14.12;71.84;95830.09;4339186;32;20196;-58
2023/05/02 11:15:34;;;;;;;1.87;1.77;;;;;;;13.61;71.79;95836.53;4356652;32;20265;-59
2023/05/02 11:18:08;;;;;;;3.13;2.07;;;;;;;13.44;73.83;95837.16;4375072;32;20195;-59
2023/05/02 11:20:41;;;;;;;1.33;1.33;;;;;;;13.59;75.62;95836.06;4297307;32;20186;-59
2023/05/02 11:23:21;;;;;;;3.43;1.97;;;;;;;13.36;80.45;95851.19;4327087;32;20258;-59
2023/05/02 11:25:59;;;;;;;2.03;1.93;;;;;;;12.95;87.93;95857.28;4316068;32;20185;-59
2023/05/02 11:28:51;;;;;;;2.33;2.23;;;;;;;12.39;90.02;95860.13;4360403;32;20212;-59
2023/05/02 11:31:29;;;;;;;1.67;1.57;;;;;;;12.41;92.84;95846.53;4340506;32;20243;-57
2023/05/02 11:33:59;;;;;;;1.40;1.40;;;;;;;12.29;92.75;95855.75;4318384;32;20221;-59
2023/05/02 11:36:34;;;;;;;2.20;2.10;;;;;;;12.21;91.66;95850.31;4318083;32;20174;-56
2023/05/02 11:39:17;;;;;;;1.63;1.63;;;;;;;12.32;92.21;95847.19;4323316;32;20244;-57
2023/05/02 11:41:45;;;;;;;2.07;1.97;;;;;;;12.34;91.21;95853.00;4354150;32;20192;-57
2023/05/02 11:44:19;;;;;;;1.90;1.80;;;;;;;12.41;92.33;95860.63;4327799;32;20185;-58
2023/05/02 11:46:47;;;;;;;1.67;1.57;;;;;;;12.17;91.62;95862.59;4387104;32;20176;-57
2023/05/02 11:49:14;;;;;;;2.00;1.53;;;;;;;12.12;88.50;95870.66;4362662;32;20184;-57
2023/05/02 11:51:43;;;;;;;1.53;1.43;;;;;;;12.36;89.43;95869.47;4363359;32;20222;-55